Flight Track Log - Related Links

Times and Time Zones

All times are in EDT time to prevent confusion due to time zone crossing. See the ASQ6151 flight status page for this flight to view local times or setup timezone preferences in your user account.

Time Position Orientation Groundspeed Altitude Reporting Facility
EDT Latitude Longitude Course Direction KTS MPH feet Rate Location/Type
Tue 22:24:00 41.9667 -88.2880 270° West  Level FlightAware Approximate
Tue 22:25:00 41.9667 -88.4174 270° West  Level FlightAware Approximate
Tue 22:26:00 41.9667 -88.5467 270° West  Level FlightAware Approximate
Tue 22:27:00 41.9667 -88.6761 270° West  Level FlightAware Approximate
Tue 22:28:00 41.9667 -88.8054 270° West  Level FlightAware Approximate
Tue 22:29:00 41.9260 -88.9073 217° Southwest  Level FlightAware Approximate
Tue 22:30:00 41.8473 -88.9814 213° Southwest  Level FlightAware Approximate
Tue 22:31:00 41.7665 -89.0515 213° Southwest  Level FlightAware Approximate
Tue 22:32:00 41.6858 -89.1214 213° Southwest  Level FlightAware Approximate
Tue 22:33:00 41.6047 -89.1906 212° Southwest  Level FlightAware Approximate
Tue 22:34:00 41.5236 -89.2597 217° Southwest  Level FlightAware Approximate
Tue 22:35:00 41.4431 -89.3298 213° Southwest  Level FlightAware Approximate
Tue 22:36:00 41.3625 -89.3996 210° Southwest  Level FlightAware Approximate
Tue 22:37:00 41.2794 -89.4642 210° Southwest  Level FlightAware Approximate
Tue 22:38:00 41.1992 -89.5342 217° Southwest  Level FlightAware Approximate
Tue 22:39:00 41.1155 -89.5883 186° South  Level FlightAware Approximate
Tue 22:40:00 41.0226 -89.6108 217° Southwest  Level FlightAware Approximate
Tue 22:41:00 40.9283 -89.6277 185° South  Level FlightAware Approximate
Tue 22:42:00 40.8338 -89.6498 194° South  Level FlightAware Approximate
Tue 22:43:00 40.7384 -89.6623 189° South  Level FlightAware Approximate
Tue 22:44:00 40.6642 -89.6933 191° South  Level Estimated
Tue 22:45:00 40.6642 -89.6933 191° South  Level Estimated
Tue 22:46:00 40.6642 -89.6933 191° South  Level Estimated
Tue 22:47:00 40.6642 -89.6933 191° South  Level Estimated
Tue 22:48:00 40.6642 -89.6933 191° South  Level Estimated
Tue 22:49:00 40.6642 -89.6933 191° South  Level Estimated
Tue 22:50:00 40.6642 -89.6933 191° South  Level Estimated
Tue 22:51:00 40.6642 -89.6933 191° South  Level Estimated
Tue 22:52:00 40.6642 -89.6933 191° South  Level Estimated
Tue 22:53:00 40.6642 -89.6933 191° South  Level Estimated
Tue 22:54:00 40.6642 -89.6933 191° South  Level Estimated

Login

Don't have an account? Register now (free) for customized features, flight alerts, and more!